Lake Arrowhead, CA (92352)

9:07 PM PST on December 28, 2014 (GMT -0800)
MesoWest Arrowhead North CA US SGXWFO | Change Station
CLOSE
Current Station
Personal Weather Station
Location: Lake Arrowhead, CA
Elevation: 5180 ft
Nearby Weather Stations
Active Advisory: Winter Storm Watch

Elev 5180 ft 34.27 °N, 117.19 °W | Updated 472 days ago

Clear
Clear
45 °F
Feels Like 45 °F
N
3
Wind Variable Wind from SE
Gusts 3 mph

Today
High -- | Low -- °F
--% Chance of Precip.
Yesterday
High -- | Low -- °F
Precip. -- in
6:53 AM 4:47 PM
First Quarter, 55% visible
Pressure 30.17 in
Visibility 7.0 miles
Clouds Clear
Dew Point 32 °F
Humidity 62%
Rainfall -999.00 in
Snow Depth Not available.
UV 0 out of 12
Pollen 7.30 out of 12
Air Quality Not available.
Flu Activity Not available.
METAR KL35 290455Z AUTO 27003KT 7SM CLR M02/M08 A3017 RMK AO2

More Conditions Fewer Conditions

Pressure 30.17 in
Visibility 7.0 miles
Clouds Clear
Dew Point 32 °F
Humidity 62%
Rainfall -999.00 in
Snow Depth Not available.
UV 0 out of 12
Pollen 7.30 out of 12
Air Quality Not available.
Flu Activity Not available.
METAR KL35 290455Z AUTO 27003KT 7SM CLR M02/M08 A3017 RMK AO2

More Conditions Fewer Conditions

10-Day Weather Forecast

Almanac

Astronomy

Dec. 28, 2014 Rise Set
Actual Time
Civil Twilight
Nautical Twilight
Astronomical Twilight
Moon
Length of Visible Light
Length of Day
Tomorrow will be .
, % of the Moon is Illuminated

Today's Extremes

State Highs State Lows

Community

WunderPhotos

Upload Photos

1,781,529 photos uploaded!

WunderBlogs® & News

Nearby

Air Quality

  Air Quality AQ Index Pollutant
Not available.

Snow Depth

Station Depth Elevation

Earthquake Activity

City Distance Mag. Time & Date
Minimum magnitude displayed is 2.5.

Coastal Water Temperatures

Place Temperature

Nearby Weather Stations